Pleasant Lake, Wisconsin
Current Conditions -  °F | °C
As of 12:56 AM on Saturday 29 Nov 2014 (Local Time) from KY50 Reporting Station
Haze Haze  
Wind Chill: 25°   Ceiling: 800
Heat Index: 25°   Visibility: 4mi
Dew Point: 24°   Wind: 0mph
Humidity: 96%   Direction: NA
Pressure: 29.78"   Gusts: NA
Location:  44.0358°N, 89.5222°W
Report Text: KY50 290656Z AUTO 00000KT 4SM BR OVC008 M04/M04 A2978 RMK AO2 TSNO T10381044 SLP094
Loading
Personal Weather Stations






























Interactive Weather Map New forecast layout! Learn more

10-Day Weather Forecast

Advertisements
Track Severe Weather on mobile